sensor_id;sensor_type;location;lat;lon;timestamp;P1;durP1;ratioP1;P2;durP2;ratioP2
36797;SDS011;22748;8.426;99.512;2024-03-17T00:02:07;25.85;;;18.45;;
36797;SDS011;22748;8.426;99.512;2024-03-17T00:04:37;26.70;;;19.40;;
36797;SDS011;22748;8.426;99.512;2024-03-17T00:07:05;29.95;;;20.08;;
36797;SDS011;22748;8.426;99.512;2024-03-17T00:09:35;24.45;;;17.90;;
36797;SDS011;22748;8.426;99.512;2024-03-17T00:12:03;26.48;;;18.48;;
36797;SDS011;22748;8.426;99.512;2024-03-17T00:14:38;22.45;;;17.15;;
36797;SDS011;22748;8.426;99.512;2024-03-17T00:17:06;23.05;;;16.95;;
36797;SDS011;22748;8.426;99.512;2024-03-17T00:19:36;17.95;;;15.77;;
36797;SDS011;22748;8.426;99.512;2024-03-17T00:22:04;26.65;;;21.67;;
36797;SDS011;22748;8.426;99.512;2024-03-17T00:24:35;26.65;;;19.63;;
36797;SDS011;22748;8.426;99.512;2024-03-17T00:27:04;27.70;;;21.95;;
36797;SDS011;22748;8.426;99.512;2024-03-17T00:29:32;29.30;;;23.60;;
36797;SDS011;22748;8.426;99.512;2024-03-17T00:32:08;28.88;;;21.27;;
36797;SDS011;22748;8.426;99.512;2024-03-17T00:34:37;34.88;;;30.52;;
36797;SDS011;22748;8.426;99.512;2024-03-17T00:37:07;30.08;;;21.48;;
36797;SDS011;22748;8.426;99.512;2024-03-17T00:39:36;35.25;;;21.17;;
36797;SDS011;22748;8.426;99.512;2024-03-17T00:42:06;29.40;;;21.67;;
36797;SDS011;22748;8.426;99.512;2024-03-17T00:44:34;26.80;;;19.63;;
36797;SDS011;22748;8.426;99.512;2024-03-17T00:47:09;35.25;;;22.02;;
36797;SDS011;22748;8.426;99.512;2024-03-17T00:49:37;33.22;;;22.67;;
36797;SDS011;22748;8.426;99.512;2024-03-17T00:52:07;36.67;;;23.35;;
36797;SDS011;22748;8.426;99.512;2024-03-17T00:54:35;29.38;;;22.50;;
36797;SDS011;22748;8.426;99.512;2024-03-17T00:57:05;29.23;;;22.83;;
36797;SDS011;22748;8.426;99.512;2024-03-17T00:59:35;31.63;;;23.08;;
36797;SDS011;22748;8.426;99.512;2024-03-17T01:02:03;36.30;;;26.90;;
36797;SDS011;22748;8.426;99.512;2024-03-17T01:04:40;28.17;;;23.40;;
36797;SDS011;22748;8.426;99.512;2024-03-17T01:07:08;29.23;;;23.48;;
36797;SDS011;22748;8.426;99.512;2024-03-17T01:09:38;28.38;;;21.88;;
36797;SDS011;22748;8.426;99.512;2024-03-17T01:12:06;26.95;;;21.85;;
36797;SDS011;22748;8.426;99.512;2024-03-17T01:14:36;29.63;;;23.10;;
36797;SDS011;22748;8.426;99.512;2024-03-17T01:17:06;31.02;;;22.65;;
36797;SDS011;22748;8.426;99.512;2024-03-17T01:19:41;26.23;;;20.83;;
36797;SDS011;22748;8.426;99.512;2024-03-17T01:22:11;24.67;;;19.67;;
36797;SDS011;22748;8.426;99.512;2024-03-17T01:24:39;25.42;;;17.85;;
36797;SDS011;22748;8.426;99.512;2024-03-17T01:27:12;25.58;;;19.25;;
36797;SDS011;22748;8.426;99.512;2024-03-17T01:29:42;20.58;;;17.23;;
36797;SDS011;22748;8.426;99.512;2024-03-17T01:32:12;19.80;;;16.42;;
36797;SDS011;22748;8.426;99.512;2024-03-17T01:34:47;21.17;;;16.55;;
36797;SDS011;22748;8.426;99.512;2024-03-17T01:37:17;21.50;;;15.95;;
36797;SDS011;22748;8.426;99.512;2024-03-17T01:39:47;19.02;;;14.50;;
36797;SDS011;22748;8.426;99.512;2024-03-17T01:42:16;21.25;;;15.05;;
36797;SDS011;22748;8.426;99.512;2024-03-17T01:44:45;18.17;;;12.95;;
36797;SDS011;22748;8.426;99.512;2024-03-17T01:47:14;20.13;;;13.73;;
36797;SDS011;22748;8.426;99.512;2024-03-17T01:49:50;22.60;;;12.73;;
36797;SDS011;22748;8.426;99.512;2024-03-17T01:52:19;19.63;;;12.93;;
36797;SDS011;22748;8.426;99.512;2024-03-17T01:54:50;16.27;;;12.73;;
36797;SDS011;22748;8.426;99.512;2024-03-17T01:57:19;18.45;;;12.18;;
36797;SDS011;22748;8.426;99.512;2024-03-17T01:59:49;29.38;;;14.55;;
36797;SDS011;22748;8.426;99.512;2024-03-17T02:02:18;22.77;;;13.88;;
36797;SDS011;22748;8.426;99.512;2024-03-17T02:07:49;16.88;;;13.18;;
36797;SDS011;22748;8.426;99.512;2024-03-17T02:10:19;16.58;;;12.60;;
36797;SDS011;22748;8.426;99.512;2024-03-17T02:12:48;12.20;;;9.98;;
36797;SDS011;22748;8.426;99.512;2024-03-17T02:15:18;14.77;;;10.77;;
36797;SDS011;22748;8.426;99.512;2024-03-17T02:17:46;12.20;;;9.80;;
36797;SDS011;22748;8.426;99.512;2024-03-17T02:20:16;15.15;;;9.73;;
36797;SDS011;22748;8.426;99.512;2024-03-17T02:22:51;11.82;;;10.35;;
36797;SDS011;22748;8.426;99.512;2024-03-17T02:25:19;12.95;;;11.10;;
36797;SDS011;22748;8.426;99.512;2024-03-17T02:27:50;12.07;;;8.95;;
36797;SDS011;22748;8.426;99.512;2024-03-17T02:30:18;9.70;;;8.80;;
36797;SDS011;22748;8.426;99.512;2024-03-17T02:32:52;12.40;;;9.15;;
36797;SDS011;22748;8.426;99.512;2024-03-17T02:35:20;12.95;;;8.50;;
36797;SDS011;22748;8.426;99.512;2024-03-17T02:37:57;14.98;;;8.70;;
36797;SDS011;22748;8.426;99.512;2024-03-17T02:40:25;76.95;;;60.22;;
36797;SDS011;22748;8.426;99.512;2024-03-17T02:42:55;18.70;;;16.73;;
36797;SDS011;22748;8.426;99.512;2024-03-17T02:45:24;16.20;;;9.25;;
36797;SDS011;22748;8.426;99.512;2024-03-17T02:47:53;9.50;;;7.78;;
36797;SDS011;22748;8.426;99.512;2024-03-17T02:50:23;10.88;;;8.90;;
36797;SDS011;22748;8.426;99.512;2024-03-17T02:53:00;9.95;;;8.48;;
36797;SDS011;22748;8.426;99.512;2024-03-17T02:55:31;10.50;;;9.05;;
36797;SDS011;22748;8.426;99.512;2024-03-17T02:58:02;13.38;;;9.80;;
36797;SDS011;22748;8.426;99.512;2024-03-17T03:00:32;10.25;;;9.23;;
36797;SDS011;22748;8.426;99.512;2024-03-17T03:03:02;11.68;;;9.48;;
36797;SDS011;22748;8.426;99.512;2024-03-17T03:05:33;13.32;;;9.30;;
36797;SDS011;22748;8.426;99.512;2024-03-17T03:08:08;10.35;;;9.25;;
36797;SDS011;22748;8.426;99.512;2024-03-17T03:10:43;11.55;;;8.90;;
36797;SDS011;22748;8.426;99.512;2024-03-17T03:13:13;21.13;;;9.45;;
36797;SDS011;22748;8.426;99.512;2024-03-17T03:15:43;16.63;;;10.17;;
36797;SDS011;22748;8.426;99.512;2024-03-17T03:18:13;13.30;;;11.30;;
36797;SDS011;22748;8.426;99.512;2024-03-17T03:20:42;12.52;;;10.43;;
36797;SDS011;22748;8.426;99.512;2024-03-17T03:23:17;10.82;;;8.82;;
36797;SDS011;22748;8.426;99.512;2024-03-17T03:25:48;10.95;;;9.32;;
36797;SDS011;22748;8.426;99.512;2024-03-17T03:28:24;13.30;;;9.07;;
36797;SDS011;22748;8.426;99.512;2024-03-17T03:30:54;11.35;;;10.15;;
36797;SDS011;22748;8.426;99.512;2024-03-17T03:33:24;10.98;;;9.82;;
36797;SDS011;22748;8.426;99.512;2024-03-17T03:35:54;9.90;;;8.90;;
36797;SDS011;22748;8.426;99.512;2024-03-17T03:38:26;12.57;;;9.47;;
36797;SDS011;22748;8.426;99.512;2024-03-17T03:40:56;9.75;;;8.75;;
36797;SDS011;22748;8.426;99.512;2024-03-17T03:43:26;10.00;;;8.60;;
36797;SDS011;22748;8.426;99.512;2024-03-17T03:45:57;11.23;;;8.30;;
36797;SDS011;22748;8.426;99.512;2024-03-17T03:48:29;12.10;;;9.52;;
36797;SDS011;22748;8.426;99.512;2024-03-17T03:51:03;10.98;;;9.10;;
36797;SDS011;22748;8.426;99.512;2024-03-17T03:53:40;10.27;;;9.27;;
36797;SDS011;22748;8.426;99.512;2024-03-17T03:56:09;11.95;;;9.07;;
36797;SDS011;22748;8.426;99.512;2024-03-17T03:58:39;9.43;;;8.32;;
36797;SDS011;22748;8.426;99.512;2024-03-17T04:01:09;12.83;;;9.80;;
36797;SDS011;22748;8.426;99.512;2024-03-17T04:03:42;11.13;;;10.13;;
36797;SDS011;22748;8.426;99.512;2024-03-17T04:06:12;11.32;;;10.15;;
36797;SDS011;22748;8.426;99.512;2024-03-17T04:08:47;11.88;;;10.65;;
36797;SDS011;22748;8.426;99.512;2024-03-17T04:11:18;17.45;;;11.20;;
36797;SDS011;22748;8.426;99.512;2024-03-17T04:13:48;15.00;;;10.98;;
36797;SDS011;22748;8.426;99.512;2024-03-17T04:16:18;11.02;;;9.93;;
36797;SDS011;22748;8.426;99.512;2024-03-17T04:18:47;10.73;;;9.73;;
36797;SDS011;22748;8.426;99.512;2024-03-17T04:21:18;11.32;;;10.13;;
36797;SDS011;22748;8.426;99.512;2024-03-17T04:26:22;13.43;;;10.82;;
36797;SDS011;22748;8.426;99.512;2024-03-17T04:28:53;11.07;;;9.98;;
36797;SDS011;22748;8.426;99.512;2024-03-17T04:31:23;12.30;;;9.55;;
36797;SDS011;22748;8.426;99.512;2024-03-17T04:33:52;11.52;;;9.90;;
36797;SDS011;22748;8.426;99.512;2024-03-17T04:36:23;11.20;;;9.23;;
36797;SDS011;22748;8.426;99.512;2024-03-17T04:38:53;13.18;;;9.95;;
36797;SDS011;22748;8.426;99.512;2024-03-17T04:41:29;10.90;;;9.77;;
36797;SDS011;22748;8.426;99.512;2024-03-17T04:43:59;11.95;;;9.95;;
36797;SDS011;22748;8.426;99.512;2024-03-17T04:46:32;10.77;;;8.77;;
36797;SDS011;22748;8.426;99.512;2024-03-17T04:49:02;9.68;;;8.68;;
36797;SDS011;22748;8.426;99.512;2024-03-17T04:51:32;11.37;;;10.13;;
36797;SDS011;22748;8.426;99.512;2024-03-17T04:54:02;13.13;;;10.85;;
36797;SDS011;22748;8.426;99.512;2024-03-17T04:59:08;11.80;;;10.60;;
36797;SDS011;22748;8.426;99.512;2024-03-17T05:01:38;11.88;;;9.60;;
36797;SDS011;22748;8.426;99.512;2024-03-17T05:04:08;10.57;;;9.48;;
36797;SDS011;22748;8.426;99.512;2024-03-17T05:06:38;10.27;;;8.52;;
36797;SDS011;22748;8.426;99.512;2024-03-17T05:09:12;11.52;;;10.40;;
36797;SDS011;22748;8.426;99.512;2024-03-17T05:11:42;12.05;;;9.70;;
36797;SDS011;22748;8.426;99.512;2024-03-17T05:14:18;18.47;;;9.63;;
36797;SDS011;22748;8.426;99.512;2024-03-17T05:16:49;12.38;;;9.40;;
36797;SDS011;22748;8.426;99.512;2024-03-17T05:19:19;10.23;;;9.23;;
36797;SDS011;22748;8.426;99.512;2024-03-17T05:21:49;11.15;;;10.02;;
36797;SDS011;22748;8.426;99.512;2024-03-17T05:24:19;9.88;;;8.75;;
36797;SDS011;22748;8.426;99.512;2024-03-17T05:26:48;9.43;;;8.50;;
36797;SDS011;22748;8.426;99.512;2024-03-17T05:29:25;10.18;;;9.02;;
36797;SDS011;22748;8.426;99.512;2024-03-17T05:31:55;9.60;;;8.57;;
36797;SDS011;22748;8.426;99.512;2024-03-17T05:34:24;9.70;;;8.70;;
36797;SDS011;22748;8.426;99.512;2024-03-17T05:36:54;11.43;;;8.75;;
36797;SDS011;22748;8.426;99.512;2024-03-17T05:39:25;9.70;;;8.50;;
36797;SDS011;22748;8.426;99.512;2024-03-17T05:41:55;10.07;;;8.77;;
36797;SDS011;22748;8.426;99.512;2024-03-17T05:44:30;11.30;;;8.30;;
36797;SDS011;22748;8.426;99.512;2024-03-17T05:47:17;9.73;;;7.80;;
36797;SDS011;22748;8.426;99.512;2024-03-17T05:49:47;10.20;;;8.93;;
36797;SDS011;22748;8.426;99.512;2024-03-17T05:52:17;10.93;;;9.10;;
36797;SDS011;22748;8.426;99.512;2024-03-17T05:54:48;9.55;;;8.52;;
36797;SDS011;22748;8.426;99.512;2024-03-17T05:57:17;8.90;;;7.97;;
36797;SDS011;22748;8.426;99.512;2024-03-17T05:59:49;8.57;;;7.87;;
36797;SDS011;22748;8.426;99.512;2024-03-17T06:02:19;11.45;;;9.10;;
36797;SDS011;22748;8.426;99.512;2024-03-17T06:04:49;11.48;;;8.75;;
36797;SDS011;22748;8.426;99.512;2024-03-17T06:07:18;9.85;;;8.82;;
36797;SDS011;22748;8.426;99.512;2024-03-17T06:09:49;13.02;;;9.40;;
36797;SDS011;22748;8.426;99.512;2024-03-17T06:12:19;10.02;;;9.00;;
36797;SDS011;22748;8.426;99.512;2024-03-17T06:14:55;9.88;;;8.77;;
36797;SDS011;22748;8.426;99.512;2024-03-17T06:17:25;9.82;;;8.82;;
36797;SDS011;22748;8.426;99.512;2024-03-17T06:19:55;12.18;;;9.27;;
36797;SDS011;22748;8.426;99.512;2024-03-17T06:22:25;10.18;;;7.00;;
36797;SDS011;22748;8.426;99.512;2024-03-17T06:24:58;13.43;;;8.30;;
36797;SDS011;22748;8.426;99.512;2024-03-17T06:27:28;8.25;;;7.45;;
36797;SDS011;22748;8.426;99.512;2024-03-17T06:30:04;11.40;;;8.10;;
36797;SDS011;22748;8.426;99.512;2024-03-17T06:32:34;8.98;;;8.05;;
36797;SDS011;22748;8.426;99.512;2024-03-17T06:35:04;8.77;;;7.90;;
36797;SDS011;22748;8.426;99.512;2024-03-17T06:37:33;11.02;;;8.90;;
36797;SDS011;22748;8.426;99.512;2024-03-17T06:40:03;8.45;;;7.40;;
36797;SDS011;22748;8.426;99.512;2024-03-17T06:42:32;9.50;;;8.05;;
36797;SDS011;22748;8.426;99.512;2024-03-17T06:45:05;10.68;;;8.30;;
36797;SDS011;22748;8.426;99.512;2024-03-17T06:47:38;8.48;;;7.65;;
36797;SDS011;22748;8.426;99.512;2024-03-17T06:50:08;10.63;;;7.85;;
36797;SDS011;22748;8.426;99.512;2024-03-17T06:52:38;9.00;;;7.90;;
36797;SDS011;22748;8.426;99.512;2024-03-17T06:55:08;8.90;;;8.02;;
36797;SDS011;22748;8.426;99.512;2024-03-17T06:57:40;8.98;;;7.90;;
36797;SDS011;22748;8.426;99.512;2024-03-17T07:00:21;9.00;;;8.10;;
36797;SDS011;22748;8.426;99.512;2024-03-17T07:02:52;11.63;;;7.50;;
36797;SDS011;22748;8.426;99.512;2024-03-17T07:07:59;8.63;;;7.65;;
36797;SDS011;22748;8.426;99.512;2024-03-17T07:10:32;8.52;;;7.70;;
36797;SDS011;22748;8.426;99.512;2024-03-17T07:13:04;7.78;;;7.13;;
36797;SDS011;22748;8.426;99.512;2024-03-17T07:15:48;9.05;;;7.70;;
36797;SDS011;22748;8.426;99.512;2024-03-17T07:18:19;9.63;;;8.30;;
36797;SDS011;22748;8.426;99.512;2024-03-17T07:20:51;9.38;;;7.65;;
36797;SDS011;22748;8.426;99.512;2024-03-17T07:23:21;9.10;;;8.27;;
36797;SDS011;22748;8.426;99.512;2024-03-17T07:25:53;8.63;;;7.65;;
36797;SDS011;22748;8.426;99.512;2024-03-17T07:28:24;10.25;;;7.47;;
36797;SDS011;22748;8.426;99.512;2024-03-17T07:31:00;9.25;;;8.27;;
36797;SDS011;22748;8.426;99.512;2024-03-17T07:33:31;10.07;;;8.07;;
36797;SDS011;22748;8.426;99.512;2024-03-17T07:36:02;10.02;;;8.23;;
36797;SDS011;22748;8.426;99.512;2024-03-17T07:38:33;8.43;;;7.43;;
36797;SDS011;22748;8.426;99.512;2024-03-17T07:41:11;13.60;;;8.38;;
36797;SDS011;22748;8.426;99.512;2024-03-17T07:43:42;9.25;;;7.13;;
36797;SDS011;22748;8.426;99.512;2024-03-17T07:46:20;8.63;;;7.85;;
36797;SDS011;22748;8.426;99.512;2024-03-17T07:48:54;9.20;;;7.45;;
36797;SDS011;22748;8.426;99.512;2024-03-17T07:51:24;9.55;;;7.30;;
36797;SDS011;22748;8.426;99.512;2024-03-17T07:53:54;8.93;;;7.07;;
36797;SDS011;22748;8.426;99.512;2024-03-17T07:56:25;11.07;;;7.60;;
36797;SDS011;22748;8.426;99.512;2024-03-17T07:58:57;9.50;;;7.13;;
36797;SDS011;22748;8.426;99.512;2024-03-17T08:01:34;8.75;;;7.72;;
36797;SDS011;22748;8.426;99.512;2024-03-17T08:04:04;7.85;;;7.05;;
36797;SDS011;22748;8.426;99.512;2024-03-17T08:06:35;10.45;;;7.55;;
36797;SDS011;22748;8.426;99.512;2024-03-17T08:09:05;8.85;;;6.80;;
36797;SDS011;22748;8.426;99.512;2024-03-17T08:11:35;7.57;;;6.75;;
36797;SDS011;22748;8.426;99.512;2024-03-17T08:14:10;9.93;;;7.55;;
36797;SDS011;22748;8.426;99.512;2024-03-17T08:19:16;10.98;;;7.03;;
36797;SDS011;22748;8.426;99.512;2024-03-17T08:21:47;12.05;;;7.82;;
36797;SDS011;22748;8.426;99.512;2024-03-17T08:24:18;10.85;;;6.97;;
36797;SDS011;22748;8.426;99.512;2024-03-17T08:26:49;13.43;;;6.95;;
36797;SDS011;22748;8.426;99.512;2024-03-17T08:29:19;10.30;;;7.63;;
36797;SDS011;22748;8.426;99.512;2024-03-17T08:31:49;8.68;;;6.75;;
36797;SDS011;22748;8.426;99.512;2024-03-17T08:34:27;10.10;;;7.10;;
36797;SDS011;22748;8.426;99.512;2024-03-17T08:37:04;9.00;;;6.82;;
36797;SDS011;22748;8.426;99.512;2024-03-17T08:39:35;8.85;;;6.88;;
36797;SDS011;22748;8.426;99.512;2024-03-17T08:42:06;6.85;;;6.15;;
36797;SDS011;22748;8.426;99.512;2024-03-17T08:44:35;7.93;;;6.80;;
36797;SDS011;22748;8.426;99.512;2024-03-17T08:47:07;8.55;;;6.82;;
36797;SDS011;22748;8.426;99.512;2024-03-17T08:49:46;8.57;;;6.50;;
36797;SDS011;22748;8.426;99.512;2024-03-17T08:52:15;9.13;;;6.60;;
36797;SDS011;22748;8.426;99.512;2024-03-17T08:54:46;9.23;;;6.80;;
36797;SDS011;22748;8.426;99.512;2024-03-17T08:57:19;11.80;;;6.63;;
36797;SDS011;22748;8.426;99.512;2024-03-17T08:59:49;10.40;;;6.70;;
36797;SDS011;22748;8.426;99.512;2024-03-17T09:04:55;10.68;;;6.18;;
36797;SDS011;22748;8.426;99.512;2024-03-17T09:07:25;9.20;;;6.57;;
36797;SDS011;22748;8.426;99.512;2024-03-17T09:09:56;9.70;;;6.43;;
36797;SDS011;22748;8.426;99.512;2024-03-17T09:12:26;7.20;;;6.50;;
36797;SDS011;22748;8.426;99.512;2024-03-17T09:14:56;7.43;;;6.65;;
36797;SDS011;22748;8.426;99.512;2024-03-17T09:17:27;8.70;;;6.78;;
36797;SDS011;22748;8.426;99.512;2024-03-17T09:20:03;9.73;;;6.93;;
36797;SDS011;22748;8.426;99.512;2024-03-17T09:22:37;8.13;;;6.97;;
36797;SDS011;22748;8.426;99.512;2024-03-17T09:25:08;9.35;;;7.57;;
36797;SDS011;22748;8.426;99.512;2024-03-17T09:27:38;7.90;;;7.13;;
36797;SDS011;22748;8.426;99.512;2024-03-17T09:30:08;9.18;;;6.65;;
36797;SDS011;22748;8.426;99.512;2024-03-17T09:32:38;9.55;;;7.35;;
36797;SDS011;22748;8.426;99.512;2024-03-17T09:35:14;7.85;;;7.15;;
36797;SDS011;22748;8.426;99.512;2024-03-17T09:37:43;8.55;;;6.90;;
36797;SDS011;22748;8.426;99.512;2024-03-17T09:40:13;9.47;;;7.17;;
36797;SDS011;22748;8.426;99.512;2024-03-17T09:42:44;9.38;;;7.10;;
36797;SDS011;22748;8.426;99.512;2024-03-17T09:45:13;10.65;;;7.22;;
36797;SDS011;22748;8.426;99.512;2024-03-17T09:47:44;9.35;;;6.90;;
36797;SDS011;22748;8.426;99.512;2024-03-17T09:50:21;9.98;;;7.40;;
36797;SDS011;22748;8.426;99.512;2024-03-17T09:52:51;12.07;;;6.78;;
36797;SDS011;22748;8.426;99.512;2024-03-17T09:55:20;8.30;;;7.47;;
36797;SDS011;22748;8.426;99.512;2024-03-17T09:57:50;8.48;;;7.47;;
36797;SDS011;22748;8.426;99.512;2024-03-17T10:00:21;10.40;;;7.43;;
36797;SDS011;22748;8.426;99.512;2024-03-17T10:02:51;8.05;;;7.25;;
36797;SDS011;22748;8.426;99.512;2024-03-17T10:05:26;8.23;;;7.43;;
36797;SDS011;22748;8.426;99.512;2024-03-17T10:07:56;9.75;;;7.65;;
36797;SDS011;22748;8.426;99.512;2024-03-17T10:10:26;9.68;;;7.68;;
36797;SDS011;22748;8.426;99.512;2024-03-17T10:12:56;9.10;;;7.30;;
36797;SDS011;22748;8.426;99.512;2024-03-17T10:15:25;10.73;;;7.43;;
36797;SDS011;22748;8.426;99.512;2024-03-17T10:17:56;17.63;;;7.85;;
36797;SDS011;22748;8.426;99.512;2024-03-17T10:20:31;15.27;;;8.00;;
36797;SDS011;22748;8.426;99.512;2024-03-17T10:23:01;19.17;;;8.60;;
36797;SDS011;22748;8.426;99.512;2024-03-17T10:25:32;13.63;;;8.27;;
36797;SDS011;22748;8.426;99.512;2024-03-17T10:28:04;13.40;;;7.47;;
36797;SDS011;22748;8.426;99.512;2024-03-17T10:30:39;9.57;;;7.93;;
36797;SDS011;22748;8.426;99.512;2024-03-17T10:33:20;11.32;;;8.50;;
36797;SDS011;22748;8.426;99.512;2024-03-17T10:35:58;11.18;;;8.40;;
36797;SDS011;22748;8.426;99.512;2024-03-17T10:38:29;9.98;;;8.35;;
36797;SDS011;22748;8.426;99.512;2024-03-17T10:40:59;14.10;;;8.63;;
36797;SDS011;22748;8.426;99.512;2024-03-17T10:43:29;12.60;;;8.90;;
36797;SDS011;22748;8.426;99.512;2024-03-17T10:46:00;10.25;;;8.20;;
36797;SDS011;22748;8.426;99.512;2024-03-17T10:48:31;10.07;;;8.68;;
36797;SDS011;22748;8.426;99.512;2024-03-17T10:51:07;10.82;;;8.90;;
36797;SDS011;22748;8.426;99.512;2024-03-17T10:53:44;10.93;;;8.88;;
36797;SDS011;22748;8.426;99.512;2024-03-17T10:56:15;10.85;;;9.07;;
36797;SDS011;22748;8.426;99.512;2024-03-17T10:58:45;13.38;;;9.55;;
36797;SDS011;22748;8.426;99.512;2024-03-17T11:01:19;12.70;;;9.13;;
36797;SDS011;22748;8.426;99.512;2024-03-17T11:03:49;12.20;;;8.90;;
36797;SDS011;22748;8.426;99.512;2024-03-17T11:06:25;11.43;;;8.90;;
36797;SDS011;22748;8.426;99.512;2024-03-17T11:08:55;15.57;;;9.15;;
36797;SDS011;22748;8.426;99.512;2024-03-17T11:14:19;13.68;;;9.85;;
36797;SDS011;22748;8.426;99.512;2024-03-17T11:16:48;13.38;;;9.60;;
36797;SDS011;22748;8.426;99.512;2024-03-17T11:19:18;16.15;;;9.80;;
36797;SDS011;22748;8.426;99.512;2024-03-17T11:21:54;13.07;;;9.40;;
36797;SDS011;22748;8.426;99.512;2024-03-17T11:24:24;11.32;;;9.82;;
36797;SDS011;22748;8.426;99.512;2024-03-17T11:26:57;11.20;;;10.00;;
36797;SDS011;22748;8.426;99.512;2024-03-17T11:29:27;14.27;;;9.83;;
36797;SDS011;22748;8.426;99.512;2024-03-17T11:31:59;10.52;;;9.50;;
36797;SDS011;22748;8.426;99.512;2024-03-17T11:34:27;14.20;;;9.20;;
36797;SDS011;22748;8.426;99.512;2024-03-17T11:37:03;11.77;;;10.13;;
36797;SDS011;22748;8.426;99.512;2024-03-17T11:39:47;11.73;;;9.95;;
36797;SDS011;22748;8.426;99.512;2024-03-17T11:42:22;13.32;;;9.98;;
36797;SDS011;22748;8.426;99.512;2024-03-17T11:45:05;11.45;;;9.98;;
36797;SDS011;22748;8.426;99.512;2024-03-17T11:50:05;10.65;;;9.60;;
36797;SDS011;22748;8.426;99.512;2024-03-17T11:52:41;11.63;;;10.10;;
36797;SDS011;22748;8.426;99.512;2024-03-17T11:55:17;14.57;;;10.68;;
36797;SDS011;22748;8.426;99.512;2024-03-17T11:57:47;16.48;;;11.15;;
36797;SDS011;22748;8.426;99.512;2024-03-17T12:00:23;18.10;;;10.80;;
36797;SDS011;22748;8.426;99.512;2024-03-17T12:02:53;14.05;;;10.18;;
36797;SDS011;22748;8.426;99.512;2024-03-17T12:05:22;16.70;;;9.93;;
36797;SDS011;22748;8.426;99.512;2024-03-17T12:08:00;22.70;;;10.57;;
36797;SDS011;22748;8.426;99.512;2024-03-17T12:10:30;14.70;;;10.20;;
36797;SDS011;22748;8.426;99.512;2024-03-17T12:12:58;15.07;;;10.80;;
36797;SDS011;22748;8.426;99.512;2024-03-17T12:15:28;11.33;;;9.90;;
36797;SDS011;22748;8.426;99.512;2024-03-17T12:17:57;16.35;;;11.63;;
36797;SDS011;22748;8.426;99.512;2024-03-17T12:20:29;22.13;;;11.52;;
36797;SDS011;22748;8.426;99.512;2024-03-17T12:23:04;15.93;;;12.18;;
36797;SDS011;22748;8.426;99.512;2024-03-17T12:25:35;14.15;;;11.40;;
36797;SDS011;22748;8.426;99.512;2024-03-17T12:28:04;12.90;;;10.90;;
36797;SDS011;22748;8.426;99.512;2024-03-17T12:30:42;13.00;;;10.77;;
36797;SDS011;22748;8.426;99.512;2024-03-17T12:33:12;14.87;;;10.50;;
36797;SDS011;22748;8.426;99.512;2024-03-17T12:35:43;13.23;;;11.68;;
36797;SDS011;22748;8.426;99.512;2024-03-17T12:41:15;15.50;;;11.85;;
36797;SDS011;22748;8.426;99.512;2024-03-17T12:43:48;12.07;;;10.80;;
36797;SDS011;22748;8.426;99.512;2024-03-17T12:46:19;20.48;;;12.02;;
36797;SDS011;22748;8.426;99.512;2024-03-17T12:48:47;20.05;;;11.80;;
36797;SDS011;22748;8.426;99.512;2024-03-17T12:51:18;14.10;;;11.27;;
36797;SDS011;22748;8.426;99.512;2024-03-17T12:53:47;14.10;;;11.57;;
36797;SDS011;22748;8.426;99.512;2024-03-17T12:56:37;13.52;;;11.30;;
36797;SDS011;22748;8.426;99.512;2024-03-17T12:59:23;12.63;;;10.55;;
36797;SDS011;22748;8.426;99.512;2024-03-17T13:02:10;16.13;;;11.73;;
36797;SDS011;22748;8.426;99.512;2024-03-17T13:04:41;14.35;;;11.20;;
36797;SDS011;22748;8.426;99.512;2024-03-17T13:07:11;18.42;;;11.82;;
36797;SDS011;22748;8.426;99.512;2024-03-17T13:09:42;14.20;;;11.15;;
36797;SDS011;22748;8.426;99.512;2024-03-17T13:27:14;14.93;;;12.18;;
36797;SDS011;22748;8.426;99.512;2024-03-17T13:36:00;15.27;;;12.95;;
36797;SDS011;22748;8.426;99.512;2024-03-17T13:41:49;19.02;;;12.35;;
36797;SDS011;22748;8.426;99.512;2024-03-17T13:44:31;15.27;;;11.95;;
36797;SDS011;22748;8.426;99.512;2024-03-17T13:47:03;15.50;;;11.20;;
36797;SDS011;22748;8.426;99.512;2024-03-17T13:49:35;15.88;;;11.68;;
36797;SDS011;22748;8.426;99.512;2024-03-17T13:57:50;13.38;;;11.48;;
36797;SDS011;22748;8.426;99.512;2024-03-17T14:00:39;13.93;;;11.95;;
36797;SDS011;22748;8.426;99.512;2024-03-17T14:03:14;12.50;;;11.15;;
36797;SDS011;22748;8.426;99.512;2024-03-17T14:08:43;14.27;;;12.27;;
36797;SDS011;22748;8.426;99.512;2024-03-17T14:11:13;12.88;;;11.55;;
36797;SDS011;22748;8.426;99.512;2024-03-17T14:13:44;13.30;;;11.90;;
36797;SDS011;22748;8.426;99.512;2024-03-17T14:16:20;13.73;;;12.32;;
36797;SDS011;22748;8.426;99.512;2024-03-17T14:18:50;16.65;;;12.38;;
36797;SDS011;22748;8.426;99.512;2024-03-17T14:21:33;15.48;;;13.70;;
36797;SDS011;22748;8.426;99.512;2024-03-17T14:24:04;22.02;;;13.50;;
36797;SDS011;22748;8.426;99.512;2024-03-17T14:26:36;17.08;;;12.15;;
36797;SDS011;22748;8.426;99.512;2024-03-17T14:29:09;18.13;;;12.68;;
36797;SDS011;22748;8.426;99.512;2024-03-17T14:34:17;20.05;;;14.55;;
36797;SDS011;22748;8.426;99.512;2024-03-17T14:36:47;26.92;;;13.57;;
36797;SDS011;22748;8.426;99.512;2024-03-17T14:39:18;19.95;;;13.40;;
36797;SDS011;22748;8.426;99.512;2024-03-17T14:44:17;25.33;;;14.02;;
36797;SDS011;22748;8.426;99.512;2024-03-17T14:46:47;21.92;;;13.68;;
36797;SDS011;22748;8.426;99.512;2024-03-17T14:49:23;15.05;;;12.15;;
36797;SDS011;22748;8.426;99.512;2024-03-17T14:52:05;16.42;;;13.02;;
36797;SDS011;22748;8.426;99.512;2024-03-17T14:54:35;14.88;;;12.70;;
36797;SDS011;22748;8.426;99.512;2024-03-17T14:57:05;17.83;;;13.13;;
36797;SDS011;22748;8.426;99.512;2024-03-17T14:59:36;19.05;;;13.18;;
36797;SDS011;22748;8.426;99.512;2024-03-17T15:02:06;18.23;;;14.68;;
36797;SDS011;22748;8.426;99.512;2024-03-17T15:07:29;20.45;;;15.23;;
36797;SDS011;22748;8.426;99.512;2024-03-17T15:10:02;19.42;;;16.10;;
36797;SDS011;22748;8.426;99.512;2024-03-17T15:12:32;17.50;;;15.00;;
36797;SDS011;22748;8.426;99.512;2024-03-17T15:15:02;18.15;;;13.90;;
36797;SDS011;22748;8.426;99.512;2024-03-17T15:17:34;16.27;;;14.10;;
36797;SDS011;22748;8.426;99.512;2024-03-17T15:20:04;16.33;;;14.52;;
36797;SDS011;22748;8.426;99.512;2024-03-17T15:22:45;15.45;;;13.85;;
36797;SDS011;22748;8.426;99.512;2024-03-17T15:25:16;19.33;;;14.50;;
36797;SDS011;22748;8.426;99.512;2024-03-17T15:27:46;18.00;;;14.50;;
36797;SDS011;22748;8.426;99.512;2024-03-17T15:30:16;17.63;;;14.07;;
36797;SDS011;22748;8.426;99.512;2024-03-17T15:32:49;18.45;;;14.23;;
36797;SDS011;22748;8.426;99.512;2024-03-17T15:35:21;16.35;;;13.85;;
36797;SDS011;22748;8.426;99.512;2024-03-17T15:37:53;16.13;;;13.70;;
36797;SDS011;22748;8.426;99.512;2024-03-17T15:40:24;17.70;;;14.25;;
36797;SDS011;22748;8.426;99.512;2024-03-17T15:42:54;16.35;;;14.40;;
36797;SDS011;22748;8.426;99.512;2024-03-17T15:45:25;17.17;;;13.55;;
36797;SDS011;22748;8.426;99.512;2024-03-17T15:47:56;19.40;;;15.63;;
36797;SDS011;22748;8.426;99.512;2024-03-17T15:50:27;25.13;;;18.23;;
36797;SDS011;22748;8.426;99.512;2024-03-17T15:53:03;25.08;;;19.48;;
36797;SDS011;22748;8.426;99.512;2024-03-17T15:55:33;25.48;;;19.20;;
36797;SDS011;22748;8.426;99.512;2024-03-17T15:58:04;28.07;;;21.03;;
36797;SDS011;22748;8.426;99.512;2024-03-17T16:00:34;28.73;;;21.48;;
36797;SDS011;22748;8.426;99.512;2024-03-17T16:03:05;29.63;;;22.15;;